createdAt,value
2018-04-29T00:00:23.973Z,3.67
2018-04-29T00:02:52.333Z,3.83
2018-04-29T00:05:20.114Z,3.93
2018-04-29T00:07:48.500Z,3.83
2018-04-29T00:10:16.359Z,3.93
2018-04-29T00:12:44.426Z,3.60
2018-04-29T00:15:12.910Z,3.60
2018-04-29T00:17:41.489Z,3.80
2018-04-29T00:20:09.253Z,3.80
2018-04-29T00:22:37.022Z,3.40
2018-04-29T00:25:05.346Z,3.50
2018-04-29T00:27:33.162Z,3.33
2018-04-29T00:30:01.547Z,3.20
2018-04-29T00:32:30.026Z,3.47
2018-04-29T00:34:58.500Z,4.27
2018-04-29T00:37:26.883Z,4.40
2018-04-29T00:39:54.546Z,4.57
2018-04-29T00:42:23.230Z,3.90
2018-04-29T00:44:51.558Z,5.50
2018-04-29T00:47:19.718Z,5.07
2018-04-29T00:49:47.751Z,4.83
2018-04-29T00:52:16.070Z,4.43
2018-04-29T00:54:43.989Z,3.73
2018-04-29T00:57:11.805Z,4.23
2018-04-29T00:59:39.277Z,3.20
2018-04-29T01:02:06.857Z,4.10
2018-04-29T01:04:34.478Z,4.03
2018-04-29T01:07:02.038Z,4.27
2018-04-29T01:09:29.654Z,4.47
2018-04-29T01:11:58.442Z,4.50
2018-04-29T01:14:26.925Z,4.47
2018-04-29T01:16:55.299Z,4.50
2018-04-29T01:19:23.981Z,5.40
2018-04-29T01:21:51.750Z,4.50
2018-04-29T01:24:20.072Z,4.67
2018-04-29T01:26:48.193Z,4.27
2018-04-29T01:29:15.764Z,4.67
2018-04-29T01:31:44.237Z,3.57
2018-04-29T01:34:12.718Z,4.20
2018-04-29T01:36:41.297Z,4.53
2018-04-29T01:39:09.161Z,4.37
2018-04-29T01:41:36.827Z,4.23
2018-04-29T01:44:04.606Z,4.67
2018-04-29T01:46:33.173Z,5.17
2018-04-29T01:49:01.567Z,4.50
2018-04-29T01:51:30.050Z,4.60
2018-04-29T01:53:58.105Z,4.43
2018-04-29T01:56:26.433Z,5.53
2018-04-29T01:58:53.991Z,5.20
2018-04-29T02:01:21.905Z,4.93
2018-04-29T02:03:50.295Z,4.43
2018-04-29T02:06:18.661Z,4.03
2018-04-29T02:08:46.978Z,4.43
2018-04-29T02:11:15.418Z,4.63
2018-04-29T02:13:43.805Z,4.07
2018-04-29T02:16:12.379Z,4.73
2018-04-29T02:18:40.143Z,4.60
2018-04-29T02:21:08.009Z,5.00
2018-04-29T02:23:35.673Z,5.00
2018-04-29T02:26:03.441Z,4.77
2018-04-29T02:28:32.123Z,4.93
2018-04-29T02:30:59.791Z,4.87
2018-04-29T02:33:28.068Z,4.67
2018-04-29T02:35:56.649Z,4.97
2018-04-29T02:38:25.023Z,5.10
2018-04-29T02:40:53.400Z,6.00
2018-04-29T02:43:21.880Z,5.23
2018-04-29T02:45:49.641Z,4.57
2018-04-29T02:48:17.405Z,4.90
2018-04-29T02:50:45.429Z,5.20
2018-04-29T02:53:12.978Z,5.80
2018-04-29T02:55:40.602Z,6.10
2018-04-29T02:58:09.082Z,6.43
2018-04-29T03:00:37.673Z,5.70
2018-04-29T03:03:06.023Z,6.13
2018-04-29T03:05:33.598Z,5.97
2018-04-29T03:08:02.287Z,5.50
2018-04-29T03:10:30.705Z,5.00
2018-04-29T03:12:58.422Z,4.50
2018-04-29T03:15:26.185Z,4.43
2018-04-29T03:17:54.050Z,4.50
2018-04-29T03:20:21.823Z,4.67
2018-04-29T03:22:50.138Z,3.90
2018-04-29T03:25:17.756Z,4.27
2018-04-29T03:27:46.358Z,4.30
2018-04-29T03:30:14.001Z,5.17
2018-04-29T03:32:42.238Z,4.60
2018-04-29T03:35:10.034Z,4.97
2018-04-29T03:37:37.698Z,4.77
2018-04-29T03:40:06.287Z,4.73
2018-04-29T03:42:34.870Z,4.23
2018-04-29T03:45:03.502Z,5.37
2018-04-29T03:47:31.014Z,5.53
2018-04-29T03:49:59.489Z,5.90
2018-04-29T03:52:27.910Z,6.03
2018-04-29T03:54:55.525Z,6.07
2018-04-29T03:57:35.277Z,6.23
2018-04-29T04:03:22.409Z,7.43
2018-04-29T04:05:51.097Z,7.20
2018-04-29T04:08:19.378Z,8.17
2018-04-29T04:10:48.018Z,8.07
2018-04-29T04:13:16.118Z,8.23
2018-04-29T04:15:43.590Z,8.03
2018-04-29T04:18:11.826Z,9.20
2018-04-29T04:20:39.490Z,9.00
2018-04-29T04:23:06.962Z,8.87
2018-04-29T04:25:34.434Z,7.60
2018-04-29T04:28:02.769Z,6.50
2018-04-29T04:30:30.270Z,7.10
2018-04-29T04:32:58.579Z,6.90
2018-04-29T04:35:26.045Z,6.37
2018-04-29T04:37:53.612Z,5.00
2018-04-29T04:40:21.181Z,5.57
2018-04-29T04:42:48.685Z,5.07
2018-04-29T04:45:17.362Z,5.50
2018-04-29T04:47:44.922Z,4.73
2018-04-29T04:50:12.481Z,5.37
2018-04-29T04:52:41.198Z,6.23
2018-04-29T04:55:08.669Z,7.03
2018-04-29T04:57:36.133Z,6.93
2018-04-29T05:00:03.842Z,8.30
2018-04-29T05:02:31.422Z,8.53
2018-04-29T05:04:58.965Z,9.13
2018-04-29T05:07:27.616Z,9.77
2018-04-29T05:09:56.235Z,11.13
2018-04-29T05:12:24.546Z,11.97
2018-04-29T05:14:52.884Z,14.00
2018-04-29T05:17:21.184Z,10.90
2018-04-29T05:19:49.437Z,12.00
2018-04-29T05:22:17.725Z,12.17
2018-04-29T05:24:46.132Z,11.43
2018-04-29T05:27:13.753Z,13.10
2018-04-29T05:29:42.339Z,13.97
2018-04-29T05:32:10.813Z,14.27
2018-04-29T05:34:39.203Z,14.13
2018-04-29T05:37:07.877Z,14.87
2018-04-29T05:39:36.161Z,12.93
2018-04-29T05:42:04.463Z,11.33
2018-04-29T05:44:32.094Z,12.27
2018-04-29T05:47:00.342Z,13.20
2018-04-29T05:49:28.035Z,12.33
2018-04-29T05:51:56.314Z,12.17
2018-04-29T05:54:24.590Z,13.40
2018-04-29T05:56:53.150Z,10.83
2018-04-29T05:59:20.633Z,11.07
2018-04-29T06:01:48.914Z,10.43
2018-04-29T06:04:17.369Z,11.73
2018-04-29T06:06:44.882Z,11.30
2018-04-29T06:09:12.407Z,10.27
2018-04-29T06:11:40.989Z,9.63
2018-04-29T06:14:09.375Z,10.20
2018-04-29T06:16:37.349Z,10.43
2018-04-29T06:19:05.018Z,10.63
2018-04-29T06:21:32.757Z,10.67
2018-04-29T06:24:01.242Z,11.83
2018-04-29T06:26:29.487Z,13.87
2018-04-29T06:28:56.962Z,13.30
2018-04-29T06:31:24.650Z,10.40
2018-04-29T06:33:52.182Z,12.43
2018-04-29T06:36:20.465Z,11.47
2018-04-29T06:38:48.905Z,11.83
2018-04-29T06:41:16.410Z,11.70
2018-04-29T06:43:44.691Z,10.53
2018-04-29T06:46:13.065Z,10.50
2018-04-29T06:48:40.578Z,10.77
2018-04-29T06:51:08.067Z,11.60
2018-04-29T06:53:36.601Z,11.77
2018-04-29T06:56:04.122Z,11.53
2018-04-29T06:58:32.415Z,10.17
2018-04-29T07:00:59.946Z,10.77
2018-04-29T07:03:28.501Z,11.33
2018-04-29T07:05:55.982Z,12.40
2018-04-29T07:08:24.227Z,12.30
2018-04-29T07:10:51.826Z,12.30
2018-04-29T07:13:20.082Z,14.13
2018-04-29T07:15:47.601Z,13.43
2018-04-29T07:18:15.466Z,14.33
2018-04-29T07:20:42.981Z,15.73
2018-04-29T07:23:11.459Z,13.23
2018-04-29T07:25:38.944Z,12.27
2018-04-29T07:28:06.481Z,14.50
2018-04-29T07:30:34.730Z,12.37
2018-04-29T07:33:02.237Z,14.27
2018-04-29T07:35:29.771Z,15.37
2018-04-29T07:37:58.354Z,11.53
2018-04-29T07:40:26.629Z,11.90
2018-04-29T07:42:54.922Z,12.63
2018-04-29T07:45:22.665Z,12.53
2018-04-29T07:47:50.912Z,12.27
2018-04-29T07:50:18.403Z,10.67
2018-04-29T07:52:46.766Z,10.73
2018-04-29T07:55:14.346Z,8.80
2018-04-29T07:57:42.619Z,9.40
2018-04-29T08:00:10.890Z,8.83
2018-04-29T08:02:39.165Z,9.53
2018-04-29T08:05:06.728Z,7.90
2018-04-29T08:07:34.481Z,8.83
2018-04-29T08:10:02.722Z,9.93
2018-04-29T08:12:30.202Z,10.20
2018-04-29T08:14:57.874Z,10.23
2018-04-29T08:17:26.154Z,9.97
2018-04-29T08:19:54.985Z,7.60
2018-04-29T08:22:22.510Z,8.30
2018-04-29T08:24:50.778Z,9.10
2018-04-29T08:27:19.867Z,9.53
2018-04-29T08:29:48.109Z,9.53
2018-04-29T08:32:15.598Z,8.77
2018-04-29T08:34:43.922Z,3.30
2018-04-29T08:37:11.482Z,7.03
2018-04-29T08:39:38.958Z,3.70
2018-04-29T08:42:06.654Z,3.37
2018-04-29T08:44:34.933Z,3.63
2018-04-29T08:47:03.214Z,5.93
2018-04-29T08:49:31.600Z,2.40
2018-04-29T08:51:58.983Z,4.13
2018-04-29T08:54:26.458Z,3.20
2018-04-29T08:56:54.030Z,5.43
2018-04-29T08:59:21.523Z,5.97
2018-04-29T09:01:49.767Z,3.67
2018-04-29T09:04:17.325Z,4.10
2018-04-29T09:06:45.123Z,4.60
2018-04-29T09:09:13.398Z,3.67
2018-04-29T09:11:41.802Z,3.83
2018-04-29T09:14:09.436Z,4.70
2018-04-29T09:16:37.676Z,4.43
2018-04-29T09:19:05.204Z,4.70
2018-04-29T09:21:33.038Z,4.27
2018-04-29T09:24:01.406Z,4.90
2018-04-29T09:26:29.695Z,4.67
2018-04-29T09:28:57.251Z,4.93
2018-04-29T09:31:25.929Z,4.57
2018-04-29T09:33:54.241Z,4.70
2018-04-29T09:36:21.722Z,4.57
2018-04-29T09:38:49.212Z,4.80
2018-04-29T09:41:16.765Z,4.63
2018-04-29T09:43:44.402Z,4.50
2018-04-29T09:46:12.867Z,4.60
2018-04-29T09:48:41.163Z,4.70
2018-04-29T09:51:08.855Z,4.30
2018-04-29T09:53:37.198Z,5.10
2018-04-29T09:56:04.683Z,4.90
2018-04-29T09:58:32.930Z,4.33
2018-04-29T10:01:01.461Z,4.80
2018-04-29T10:03:28.915Z,4.57
2018-04-29T10:05:57.198Z,3.80
2018-04-29T10:08:24.989Z,4.20
2018-04-29T10:10:52.509Z,4.40
2018-04-29T10:13:20.762Z,3.90
2018-04-29T10:15:48.342Z,3.57
2018-04-29T10:18:16.587Z,4.40
2018-04-29T10:20:44.061Z,4.77
2018-04-29T10:23:11.842Z,3.63
2018-04-29T10:25:40.115Z,3.73
2018-04-29T10:28:08.396Z,3.90
2018-04-29T10:30:37.065Z,4.00
2018-04-29T10:33:05.392Z,3.60
2018-04-29T10:35:32.906Z,3.53
2018-04-29T10:38:01.386Z,3.53
2018-04-29T10:40:29.630Z,3.50
2018-04-29T10:42:57.106Z,3.50
2018-04-29T10:45:24.691Z,3.90
2018-04-29T10:47:52.931Z,3.30
2018-04-29T10:50:20.846Z,3.87
2018-04-29T10:52:48.681Z,3.23
2018-04-29T10:55:16.966Z,3.57
2018-04-29T10:57:45.222Z,3.40
2018-04-29T11:00:13.097Z,3.80
2018-04-29T11:02:42.048Z,3.30
2018-04-29T11:05:09.574Z,3.43
2018-04-29T11:07:37.422Z,3.33
2018-04-29T11:10:04.978Z,3.00
2018-04-29T11:12:33.257Z,2.90
2018-04-29T11:15:01.672Z,3.17
2018-04-29T11:17:29.154Z,3.50
2018-04-29T11:19:56.634Z,3.03
2018-04-29T11:22:24.301Z,3.03
2018-04-29T11:24:51.758Z,3.23
2018-04-29T11:27:19.242Z,3.33
2018-04-29T11:29:47.187Z,2.97
2018-04-29T11:32:15.475Z,3.30
2018-04-29T11:34:43.742Z,2.83
2018-04-29T11:37:12.126Z,2.90
2018-04-29T11:39:40.601Z,2.33
2018-04-29T11:42:08.874Z,3.33
2018-04-29T11:44:37.867Z,3.40
2018-04-29T11:47:06.117Z,3.00
2018-04-29T11:49:33.598Z,3.03
2018-04-29T11:52:01.647Z,3.20
2018-04-29T11:54:29.535Z,3.07
2018-04-29T11:56:57.797Z,3.27
2018-04-29T11:59:25.381Z,2.93
2018-04-29T12:01:53.818Z,3.03
2018-04-29T12:04:22.026Z,3.03
2018-04-29T12:06:49.718Z,3.00
2018-04-29T12:09:17.207Z,3.10
2018-04-29T12:11:45.526Z,3.23
2018-04-29T12:14:13.112Z,2.70
2018-04-29T12:16:40.647Z,2.90
2018-04-29T12:19:09.427Z,2.73
2018-04-29T12:21:37.706Z,3.03
2018-04-29T12:24:06.090Z,2.97
2018-04-29T12:26:34.334Z,3.00
2018-04-29T12:29:01.833Z,2.73
2018-04-29T12:31:29.373Z,3.20
2018-04-29T12:33:56.930Z,3.50
2018-04-29T12:36:24.495Z,3.67
2018-04-29T12:38:52.353Z,3.70
2018-04-29T12:41:21.313Z,3.50
2018-04-29T12:43:48.814Z,5.27
2018-04-29T12:46:17.115Z,5.50
2018-04-29T12:48:44.612Z,6.30
2018-04-29T12:51:12.154Z,8.07
2018-04-29T12:53:40.427Z,8.97
2018-04-29T12:56:07.938Z,8.97
2018-04-29T12:58:36.518Z,8.47
2018-04-29T13:01:03.999Z,8.93
2018-04-29T13:03:31.484Z,10.10
2018-04-29T13:05:59.062Z,8.60
2018-04-29T13:08:26.547Z,8.47
2018-04-29T13:10:54.793Z,9.10
2018-04-29T13:13:22.380Z,8.13
2018-04-29T13:15:50.722Z,8.83
2018-04-29T13:18:18.198Z,9.67
2018-04-29T13:20:45.810Z,10.63
2018-04-29T13:23:13.289Z,10.20
2018-04-29T13:25:40.790Z,10.67
2018-04-29T13:28:09.198Z,10.50
2018-04-29T13:30:36.687Z,11.33
2018-04-29T13:33:04.179Z,11.77
2018-04-29T13:35:31.746Z,11.07
2018-04-29T13:38:00.023Z,9.93
2018-04-29T13:40:28.296Z,8.90
2018-04-29T13:42:55.985Z,8.70
2018-04-29T13:45:23.522Z,8.80
2018-04-29T13:47:51.765Z,8.50
2018-04-29T13:50:19.284Z,7.47
2018-04-29T13:52:46.790Z,8.70
2018-04-29T13:55:14.578Z,7.93
2018-04-29T13:57:42.435Z,7.63
2018-04-29T14:00:10.720Z,7.17
2018-04-29T14:02:38.963Z,6.30
2018-04-29T14:05:06.551Z,5.27
2018-04-29T14:07:34.826Z,4.83
2018-04-29T14:10:03.083Z,4.70
2018-04-29T14:12:30.659Z,4.03
2018-04-29T14:14:58.205Z,4.10
2018-04-29T14:17:25.784Z,3.77
2018-04-29T14:19:54.150Z,3.93
2018-04-29T14:22:21.697Z,3.73
2018-04-29T14:24:49.267Z,3.80
2018-04-29T14:27:17.854Z,3.37
2018-04-29T14:29:46.098Z,3.13
2018-04-29T14:32:13.586Z,3.70
2018-04-29T14:34:41.871Z,3.53
2018-04-29T14:37:10.138Z,3.23
2018-04-29T14:39:38.619Z,3.50
2018-04-29T14:42:07.198Z,3.20
2018-04-29T14:44:34.790Z,3.23
2018-04-29T14:47:02.322Z,3.20
2018-04-29T14:49:31.213Z,3.30
2018-04-29T14:51:59.589Z,3.30
2018-04-29T14:54:27.830Z,3.20
2018-04-29T14:56:55.306Z,3.23
2018-04-29T14:59:23.105Z,3.67
2018-04-29T15:01:50.752Z,3.07
2018-04-29T15:04:19.121Z,3.30
2018-04-29T15:06:47.636Z,3.33
2018-04-29T15:09:15.269Z,3.23
2018-04-29T15:11:43.515Z,3.37
2018-04-29T15:14:11.099Z,3.60
2018-04-29T15:16:39.382Z,3.30
2018-04-29T15:19:07.658Z,3.30
2018-04-29T15:21:35.926Z,5.10
2018-04-29T15:24:04.225Z,5.47
2018-04-29T15:26:31.810Z,5.10
2018-04-29T15:28:59.418Z,5.50
2018-04-29T15:31:27.298Z,5.50
2018-04-29T15:33:55.673Z,6.40
2018-04-29T15:36:24.146Z,8.43
2018-04-29T15:38:52.391Z,9.97
2018-04-29T15:41:19.971Z,8.63
2018-04-29T15:43:47.545Z,9.03
2018-04-29T15:46:15.821Z,9.10
2018-04-29T15:48:44.205Z,10.63
2018-04-29T15:51:13.394Z,9.50
2018-04-29T15:53:41.878Z,8.77
2018-04-29T15:56:10.243Z,9.97
2018-04-29T15:58:37.913Z,10.30
2018-04-29T16:01:06.192Z,9.43
2018-04-29T16:03:34.599Z,9.47
2018-04-29T16:06:02.842Z,8.70
2018-04-29T16:08:31.226Z,8.00
2018-04-29T16:10:59.194Z,8.90
2018-04-29T16:13:27.668Z,7.63
2018-04-29T16:15:56.529Z,7.63
2018-04-29T16:18:24.222Z,8.07
2018-04-29T16:20:52.601Z,7.77
2018-04-29T16:23:20.880Z,7.90
2018-04-29T16:25:49.118Z,7.30
2018-04-29T16:28:16.710Z,6.53
2018-04-29T16:30:45.295Z,6.87
2018-04-29T16:33:13.583Z,6.70
2018-04-29T16:35:42.254Z,6.57
2018-04-29T16:38:10.655Z,6.53
2018-04-29T16:40:39.149Z,6.30
2018-04-29T16:43:06.781Z,6.00
2018-04-29T16:45:35.022Z,5.77
2018-04-29T16:48:02.718Z,5.83
2018-04-29T16:50:30.986Z,6.13
2018-04-29T16:52:59.075Z,5.70
2018-04-29T16:55:27.889Z,5.53
2018-04-29T16:57:56.325Z,5.60
2018-04-29T17:00:24.701Z,6.20
2018-04-29T17:02:53.185Z,6.00
2018-04-29T17:05:21.665Z,5.90
2018-04-29T17:07:50.051Z,5.80
2018-04-29T17:10:18.529Z,5.60
2018-04-29T17:12:47.209Z,5.63
2018-04-29T17:15:15.486Z,5.67
2018-04-29T17:17:44.065Z,6.03
2018-04-29T17:20:11.728Z,5.60
2018-04-29T17:22:40.057Z,5.77
2018-04-29T17:25:08.186Z,6.13
2018-04-29T17:27:36.661Z,6.27
2018-04-29T17:30:04.986Z,6.00
2018-04-29T17:32:32.801Z,6.47
2018-04-29T17:35:01.046Z,7.23
2018-04-29T17:37:28.514Z,6.80
2018-04-29T17:39:56.193Z,7.17
2018-04-29T17:42:24.573Z,6.93
2018-04-29T17:44:52.901Z,6.40
2018-04-29T17:47:20.618Z,9.53
2018-04-29T17:49:48.998Z,7.27
2018-04-29T17:52:17.273Z,7.40
2018-04-29T17:54:45.681Z,6.00
2018-04-29T17:57:13.201Z,6.50
2018-04-29T17:59:40.758Z,7.40
2018-04-29T18:02:08.639Z,9.00
2018-04-29T18:04:37.013Z,8.13
2018-04-29T18:07:05.898Z,6.87
2018-04-29T18:09:34.239Z,6.93
2018-04-29T18:12:01.749Z,7.03
2018-04-29T18:14:30.438Z,8.90
2018-04-29T18:16:59.244Z,7.23
2018-04-29T18:19:26.872Z,8.23
2018-04-29T18:21:55.113Z,7.47
2018-04-29T18:24:22.585Z,8.43
2018-04-29T18:26:51.394Z,7.97
2018-04-29T18:29:19.823Z,7.00
2018-04-29T18:31:47.300Z,7.50
2018-04-29T18:34:14.994Z,7.50
2018-04-29T18:36:43.474Z,6.27
2018-04-29T18:39:11.741Z,7.07
2018-04-29T18:41:40.121Z,6.90
2018-04-29T18:44:08.365Z,5.77
2018-04-29T18:46:35.859Z,5.07
2018-04-29T18:49:04.175Z,5.10
2018-04-29T18:51:33.321Z,6.93
2018-04-29T18:54:01.401Z,8.20
2018-04-29T18:56:30.395Z,6.40
2018-04-29T18:58:58.295Z,17.03
2018-04-29T19:01:26.056Z,15.70
2018-04-29T19:03:53.619Z,7.63
2018-04-29T19:06:21.378Z,7.97
2018-04-29T19:08:49.452Z,7.63
2018-04-29T19:11:17.452Z,6.90
2018-04-29T19:13:45.225Z,7.33
2018-04-29T19:16:13.026Z,5.93
2018-04-29T19:18:41.370Z,7.03
2018-04-29T19:21:09.062Z,6.20
2018-04-29T19:23:37.679Z,8.10
2018-04-29T19:26:05.398Z,6.77
2018-04-29T19:28:33.802Z,6.50
2018-04-29T19:31:01.799Z,6.50
2018-04-29T19:33:29.413Z,6.77
2018-04-29T19:35:57.890Z,5.90
2018-04-29T19:38:26.211Z,6.40
2018-04-29T19:40:54.033Z,6.37
2018-04-29T19:43:22.322Z,6.93
2018-04-29T19:45:50.566Z,5.17
2018-04-29T19:48:18.447Z,6.10
2018-04-29T19:50:46.932Z,6.10
2018-04-29T19:53:15.178Z,5.50
2018-04-29T19:55:42.797Z,5.50
2018-04-29T19:58:10.438Z,5.83
2018-04-29T20:00:38.809Z,6.07
2018-04-29T20:03:07.282Z,5.63
2018-04-29T20:05:35.661Z,6.23
2018-04-29T20:08:03.373Z,6.17
2018-04-29T20:10:30.993Z,5.17
2018-04-29T20:12:59.364Z,6.93
2018-04-29T20:15:27.749Z,7.80
2018-04-29T20:17:56.129Z,7.60
2018-04-29T20:20:24.606Z,10.17
2018-04-29T20:22:53.190Z,7.60
2018-04-29T20:25:21.460Z,7.50
2018-04-29T20:27:49.741Z,7.60
2018-04-29T20:30:18.217Z,6.30
2018-04-29T20:32:48.390Z,7.70
2018-04-29T20:35:15.997Z,7.80
2018-04-29T20:37:44.709Z,7.57
2018-04-29T20:40:12.555Z,7.43
2018-04-29T20:42:40.825Z,7.30
2018-04-29T20:45:09.141Z,7.03
2018-04-29T20:47:36.642Z,7.73
2018-04-29T20:50:04.222Z,7.70
2018-04-29T20:52:33.622Z,7.33
2018-04-29T20:55:01.867Z,7.27
2018-04-29T20:57:29.345Z,8.67
2018-04-29T20:59:56.869Z,7.90
2018-04-29T21:02:24.375Z,7.80
2018-04-29T21:04:52.905Z,7.70
2018-04-29T21:07:21.025Z,8.10
2018-04-29T21:09:49.301Z,8.03
2018-04-29T21:12:17.545Z,7.43
2018-04-29T21:14:45.210Z,7.93
2018-04-29T21:17:12.721Z,8.07
2018-04-29T21:19:40.974Z,7.80
2018-04-29T21:22:09.254Z,7.80
2018-04-29T21:24:37.885Z,8.67
2018-04-29T21:27:05.394Z,7.50
2018-04-29T21:29:33.633Z,8.30
2018-04-29T21:32:01.210Z,8.13
2018-04-29T21:34:28.681Z,8.20
2018-04-29T21:36:56.957Z,8.07
2018-04-29T21:39:25.530Z,7.50
2018-04-29T21:41:53.106Z,8.37
2018-04-29T21:44:21.367Z,8.27
2018-04-29T21:46:49.025Z,7.83
2018-04-29T21:49:16.597Z,7.90
2018-04-29T21:51:44.881Z,8.30
2018-04-29T21:54:13.422Z,8.20
2018-04-29T21:56:40.897Z,8.57
2018-04-29T21:59:08.471Z,8.07
2018-04-29T22:01:37.147Z,8.40
2018-04-29T22:04:04.720Z,8.37
2018-04-29T22:06:32.973Z,7.90
2018-04-29T22:09:00.501Z,7.90
2018-04-29T22:11:28.254Z,8.07
2018-04-29T22:13:55.847Z,7.67
2018-04-29T22:16:23.349Z,8.07
2018-04-29T22:18:50.895Z,7.97
2018-04-29T22:21:18.646Z,7.20
2018-04-29T22:23:46.222Z,8.03
2018-04-29T22:26:14.485Z,8.50
2018-04-29T22:28:42.962Z,6.93
2018-04-29T22:31:11.243Z,6.20
2018-04-29T22:33:39.511Z,5.50
2018-04-29T22:36:08.009Z,4.40
2018-04-29T22:38:35.622Z,3.90
2018-04-29T22:41:03.120Z,3.40
2018-04-29T22:43:31.393Z,3.30
2018-04-29T22:45:59.762Z,2.97
2018-04-29T22:48:27.504Z,3.00
2018-04-29T22:50:54.983Z,3.30
2018-04-29T22:53:22.854Z,2.77
2018-04-29T22:55:51.135Z,2.57
2018-04-29T22:58:19.413Z,2.50
2018-04-29T23:00:47.757Z,2.90
2018-04-29T23:03:15.242Z,3.00
2018-04-29T23:05:43.482Z,3.07
2018-04-29T23:08:10.998Z,2.47
2018-04-29T23:10:38.473Z,2.53
2018-04-29T23:13:06.450Z,2.60
2018-04-29T23:15:33.926Z,2.47
2018-04-29T23:18:01.418Z,2.33
2018-04-29T23:20:30.405Z,2.30
2018-04-29T23:22:58.685Z,1.40
2018-04-29T23:25:26.922Z,1.77
2018-04-29T23:27:54.554Z,1.67
2018-04-29T23:30:22.030Z,1.50
2018-04-29T23:32:49.588Z,1.37
2018-04-29T23:35:17.808Z,1.20
2018-04-29T23:37:45.249Z,1.60
2018-04-29T23:40:12.830Z,1.33
2018-04-29T23:42:41.066Z,1.27
2018-04-29T23:45:08.558Z,1.53
2018-04-29T23:47:36.949Z,1.40
2018-04-29T23:50:04.694Z,1.00
2018-04-29T23:52:32.978Z,1.00
2018-04-29T23:55:01.215Z,0.90
2018-04-29T23:57:28.918Z,1.07
2018-04-29T23:59:57.194Z,0.80
